createdAt,value
2016-12-05T00:00:10.683Z,99.99
2016-12-05T00:01:10.580Z,99.99
2016-12-05T00:02:10.607Z,99.99
2016-12-05T00:03:10.654Z,99.99
2016-12-05T00:04:10.657Z,99.99
2016-12-05T00:05:10.598Z,99.99
2016-12-05T00:06:10.611Z,99.99
2016-12-05T00:07:10.604Z,99.99
2016-12-05T00:08:10.610Z,99.99
2016-12-05T00:09:10.609Z,99.99
2016-12-05T00:10:10.685Z,99.99
2016-12-05T00:11:10.680Z,99.99
2016-12-05T00:12:10.690Z,99.99
2016-12-05T00:13:10.620Z,99.99
2016-12-05T00:14:10.627Z,99.99
2016-12-05T00:15:10.619Z,99.99
2016-12-05T00:16:10.724Z,99.99
2016-12-05T00:17:10.700Z,99.99
2016-12-05T00:18:10.707Z,99.99
2016-12-05T00:19:10.627Z,99.99
2016-12-05T00:20:10.711Z,99.99
2016-12-05T00:21:10.705Z,99.99
2016-12-05T00:22:10.640Z,99.99
2016-12-05T00:23:10.715Z,99.99
2016-12-05T00:24:10.656Z,99.99
2016-12-05T00:25:10.729Z,99.99
2016-12-05T00:26:10.736Z,99.99
2016-12-05T00:27:10.680Z,99.99
2016-12-05T00:28:10.733Z,99.99
2016-12-05T00:29:10.657Z,99.99
2016-12-05T00:30:10.693Z,99.99
2016-12-05T00:31:10.667Z,99.99
2016-12-05T00:32:10.779Z,99.99
2016-12-05T00:33:10.748Z,99.99
2016-12-05T00:34:10.755Z,99.99
2016-12-05T00:35:10.687Z,99.99
2016-12-05T00:36:10.676Z,99.99
2016-12-05T00:37:10.761Z,99.99
2016-12-05T00:38:10.678Z,99.99
2016-12-05T00:39:10.691Z,99.99
2016-12-05T00:40:10.760Z,99.99
2016-12-05T00:41:10.683Z,99.99
2016-12-05T00:42:10.699Z,99.99
2016-12-05T00:43:10.781Z,99.99
2016-12-05T00:44:10.767Z,99.99
2016-12-05T00:45:10.773Z,99.99
2016-12-05T00:46:10.702Z,99.99
2016-12-05T00:47:10.783Z,99.99
2016-12-05T00:48:10.729Z,99.99
2016-12-05T00:49:10.719Z,99.99
2016-12-05T00:50:10.796Z,99.99
2016-12-05T00:51:10.797Z,99.99
2016-12-05T00:52:10.718Z,99.99
2016-12-05T00:53:10.809Z,99.99
2016-12-05T00:54:10.796Z,99.99
2016-12-05T00:55:10.794Z,99.99
2016-12-05T00:56:10.736Z,99.99
2016-12-05T00:57:10.808Z,99.99
2016-12-05T00:58:10.759Z,99.99
2016-12-05T00:59:10.732Z,99.99
2016-12-05T01:00:10.766Z,99.99
2016-12-05T01:01:10.743Z,99.99
2016-12-05T01:02:10.746Z,99.99
2016-12-05T01:03:10.754Z,99.99
2016-12-05T01:04:10.869Z,99.99
2016-12-05T01:05:10.754Z,99.99
2016-12-05T01:06:10.841Z,99.99
2016-12-05T01:07:10.766Z,99.99
2016-12-05T01:08:10.853Z,99.99
2016-12-05T01:09:10.868Z,99.99
2016-12-05T01:10:10.841Z,99.99
2016-12-05T01:11:10.847Z,99.99
2016-12-05T01:12:10.772Z,99.99
2016-12-05T01:13:10.780Z,99.99
2016-12-05T01:14:10.787Z,99.99
2016-12-05T01:15:10.779Z,99.99
2016-12-05T01:16:10.855Z,99.99
2016-12-05T01:17:10.860Z,99.99
2016-12-05T01:18:10.793Z,99.99
2016-12-05T01:19:10.795Z,99.99
2016-12-05T01:20:10.832Z,99.99
2016-12-05T01:21:10.798Z,99.99
2016-12-05T01:22:10.796Z,99.99
2016-12-05T01:23:10.812Z,99.99
2016-12-05T01:24:10.815Z,99.99
2016-12-05T01:25:10.819Z,99.99
2016-12-05T01:26:10.885Z,99.99
2016-12-05T01:27:10.813Z,99.99
2016-12-05T01:28:10.892Z,99.99
2016-12-05T01:29:10.890Z,99.99
2016-12-05T01:30:10.836Z,99.99
2016-12-05T01:31:10.938Z,99.99
2016-12-05T01:32:10.902Z,99.99
2016-12-05T01:33:10.912Z,99.99
2016-12-05T01:34:10.840Z,99.99
2016-12-05T01:35:10.914Z,99.99
2016-12-05T01:36:10.863Z,99.99
2016-12-05T01:37:10.845Z,99.99
2016-12-05T01:38:10.850Z,99.99
2016-12-05T01:39:10.845Z,99.99
2016-12-05T01:40:10.849Z,99.99
2016-12-05T01:41:10.859Z,99.99
2016-12-05T01:42:10.933Z,99.99
2016-12-05T01:43:10.938Z,99.99
2016-12-05T01:44:10.932Z,99.99
2016-12-05T01:45:10.858Z,99.99
2016-12-05T01:46:10.876Z,99.99
2016-12-05T01:47:10.869Z,99.99
2016-12-05T01:48:10.875Z,99.99
2016-12-05T01:49:10.949Z,99.99
2016-12-05T01:50:11.010Z,99.99
2016-12-05T01:51:10.887Z,99.99
2016-12-05T01:52:10.988Z,99.99
2016-12-05T01:53:11.020Z,99.99
2016-12-05T01:54:10.888Z,99.99
2016-12-05T01:55:11.025Z,99.99
2016-12-05T01:56:10.971Z,99.99
2016-12-05T01:57:10.901Z,99.99
2016-12-05T01:58:10.975Z,99.99
2016-12-05T01:59:10.996Z,99.99
2016-12-05T02:00:11.006Z,99.99
2016-12-05T02:01:10.910Z,99.99
2016-12-05T02:02:10.989Z,99.99
2016-12-05T02:03:11.060Z,99.99
2016-12-05T02:04:10.994Z,99.99
2016-12-05T02:05:11.004Z,99.99
2016-12-05T02:06:10.994Z,99.99
2016-12-05T02:07:10.997Z,99.99
2016-12-05T02:08:11.301Z,99.99
2016-12-05T02:09:11.000Z,99.99
2016-12-05T02:10:11.005Z,99.99
2016-12-05T02:11:10.933Z,99.99
2016-12-05T02:12:11.010Z,99.99
2016-12-05T02:13:10.937Z,99.99
2016-12-05T02:14:11.011Z,99.99
2016-12-05T02:15:10.947Z,99.99
2016-12-05T02:16:10.947Z,99.99
2016-12-05T02:17:11.019Z,99.99
2016-12-05T02:18:10.962Z,99.99
2016-12-05T02:19:11.031Z,99.99
2016-12-05T02:20:10.961Z,99.99
2016-12-05T02:21:10.956Z,99.99
2016-12-05T02:22:10.971Z,99.99
2016-12-05T02:23:11.037Z,99.99
2016-12-05T02:24:11.131Z,99.99
2016-12-05T02:25:10.972Z,99.99
2016-12-05T02:26:11.142Z,99.99
2016-12-05T02:27:11.052Z,99.99
2016-12-05T02:28:10.989Z,99.99
2016-12-05T02:29:11.062Z,99.99
2016-12-05T02:30:11.057Z,99.99
2016-12-05T02:31:10.986Z,99.99
2016-12-05T02:32:11.068Z,99.99
2016-12-05T02:33:10.997Z,99.99
2016-12-05T02:34:11.177Z,99.99
2016-12-05T02:35:11.077Z,99.99
2016-12-05T02:36:11.007Z,99.99
2016-12-05T02:37:11.087Z,99.99
2016-12-05T02:38:11.012Z,99.99
2016-12-05T02:39:11.247Z,99.99
2016-12-05T02:40:11.130Z,99.99
2016-12-05T02:41:11.016Z,99.99
2016-12-05T02:42:11.015Z,99.99
2016-12-05T02:43:11.022Z,99.99
2016-12-05T02:44:11.031Z,99.99
2016-12-05T02:45:11.106Z,99.99
2016-12-05T02:46:11.029Z,99.99
2016-12-05T02:47:11.024Z,99.99
2016-12-05T02:48:11.053Z,99.99
2016-12-05T02:49:11.115Z,99.99
2016-12-05T02:50:11.035Z,99.99
2016-12-05T02:51:11.109Z,99.99
2016-12-05T02:52:11.239Z,99.99
2016-12-05T02:53:11.119Z,99.99
2016-12-05T02:54:11.126Z,99.99
2016-12-05T02:55:11.157Z,99.99
2016-12-05T02:56:11.168Z,99.99
2016-12-05T02:57:11.132Z,99.99
2016-12-05T02:58:11.074Z,99.99
2016-12-05T02:59:11.058Z,99.99
2016-12-05T03:00:11.139Z,99.99
2016-12-05T03:01:11.143Z,99.99
2016-12-05T03:02:11.080Z,99.99
2016-12-05T03:03:11.148Z,99.99
2016-12-05T03:04:11.147Z,99.99
2016-12-05T03:05:11.231Z,99.99
2016-12-05T03:06:11.161Z,99.99
2016-12-05T03:07:11.092Z,99.99
2016-12-05T03:08:11.167Z,99.99
2016-12-05T03:09:11.093Z,99.99
2016-12-05T03:10:11.306Z,99.99
2016-12-05T03:11:11.087Z,99.99
2016-12-05T03:12:11.127Z,99.99
2016-12-05T03:13:11.172Z,99.99
2016-12-05T03:14:11.170Z,99.99
2016-12-05T03:15:11.173Z,99.99
2016-12-05T03:16:11.177Z,99.99
2016-12-05T03:17:11.183Z,99.99
2016-12-05T03:18:11.120Z,99.99
2016-12-05T03:19:11.115Z,99.99
2016-12-05T03:20:11.125Z,99.99
2016-12-05T03:21:11.189Z,99.99
2016-12-05T03:22:11.124Z,99.99
2016-12-05T03:23:11.290Z,99.99
2016-12-05T03:24:11.203Z,99.99
2016-12-05T03:25:11.203Z,99.99
2016-12-05T03:26:11.193Z,99.99
2016-12-05T03:27:11.133Z,99.99
2016-12-05T03:28:11.396Z,99.99
2016-12-05T03:29:11.225Z,99.99
2016-12-05T03:30:11.143Z,99.99
2016-12-05T03:31:11.162Z,99.99
2016-12-05T03:32:11.152Z,99.99
2016-12-05T03:33:11.154Z,99.99
2016-12-05T03:34:11.158Z,99.99
2016-12-05T03:35:11.160Z,99.99
2016-12-05T03:36:11.228Z,99.99
2016-12-05T03:37:11.248Z,99.99
2016-12-05T03:38:11.246Z,99.99
2016-12-05T03:39:11.240Z,99.99
2016-12-05T03:40:11.251Z,99.99
2016-12-05T03:41:11.399Z,99.99
2016-12-05T03:42:11.183Z,99.99
2016-12-05T03:43:11.259Z,99.99
2016-12-05T03:44:11.289Z,99.99
2016-12-05T03:45:11.192Z,99.99
2016-12-05T03:46:11.185Z,99.99
2016-12-05T03:47:11.277Z,99.99
2016-12-05T03:48:11.222Z,99.99
2016-12-05T03:49:11.271Z,99.99
2016-12-05T03:50:11.205Z,99.99
2016-12-05T03:51:11.288Z,99.99
2016-12-05T03:52:11.199Z,99.99
2016-12-05T03:53:11.286Z,99.99
2016-12-05T03:54:11.343Z,99.99
2016-12-05T03:55:11.224Z,99.99
2016-12-05T03:56:11.219Z,99.99
2016-12-05T03:57:11.262Z,99.99
2016-12-05T03:58:11.222Z,99.99
2016-12-05T03:59:11.339Z,99.99
2016-12-05T04:00:11.249Z,99.99
2016-12-05T04:01:11.310Z,99.99
2016-12-05T04:02:11.238Z,99.99
2016-12-05T04:03:11.307Z,99.99
2016-12-05T04:04:11.356Z,99.99
2016-12-05T04:05:11.311Z,99.99
2016-12-05T04:06:11.252Z,99.99
2016-12-05T04:07:11.338Z,99.99
2016-12-05T04:08:11.322Z,99.99
2016-12-05T04:09:11.325Z,99.99
2016-12-05T04:10:11.329Z,99.99
2016-12-05T04:11:11.256Z,99.99
2016-12-05T04:12:11.516Z,99.99
2016-12-05T04:13:11.334Z,99.99
2016-12-05T04:14:11.341Z,99.99
2016-12-05T04:15:11.269Z,99.99
2016-12-05T04:16:11.310Z,99.99
2016-12-05T04:17:11.270Z,99.99
2016-12-05T04:18:11.347Z,99.99
2016-12-05T04:19:11.349Z,99.99
2016-12-05T04:20:11.355Z,99.99
2016-12-05T04:21:11.357Z,99.99
2016-12-05T04:22:11.365Z,99.99
2016-12-05T04:23:11.357Z,99.99
2016-12-05T04:24:11.370Z,99.99
2016-12-05T04:25:11.461Z,99.99
2016-12-05T04:26:11.298Z,99.99
2016-12-05T04:27:11.372Z,99.99
2016-12-05T04:28:11.353Z,99.99
2016-12-05T04:29:11.302Z,99.99
2016-12-05T04:30:11.447Z,99.99
2016-12-05T04:31:11.391Z,99.99
2016-12-05T04:32:11.347Z,99.99
2016-12-05T04:33:11.397Z,99.99
2016-12-05T04:34:11.324Z,99.99
2016-12-05T04:35:11.397Z,99.99
2016-12-05T04:36:11.397Z,99.99
2016-12-05T04:37:11.326Z,99.99
2016-12-05T04:38:11.460Z,99.99
2016-12-05T04:39:11.341Z,99.99
2016-12-05T04:40:11.405Z,99.99
2016-12-05T04:41:11.407Z,99.99
2016-12-05T04:42:11.331Z,99.99
2016-12-05T04:43:11.597Z,99.99
2016-12-05T04:44:11.346Z,99.99
2016-12-05T04:45:11.354Z,99.99
2016-12-05T04:46:11.419Z,99.99
2016-12-05T04:47:11.368Z,99.99
2016-12-05T04:48:11.540Z,99.99
2016-12-05T04:49:11.426Z,99.99
2016-12-05T04:50:11.440Z,99.99
2016-12-05T04:51:11.439Z,99.99
2016-12-05T04:52:11.448Z,99.99
2016-12-05T04:53:11.445Z,99.99
2016-12-05T04:54:11.370Z,99.99
2016-12-05T04:55:11.375Z,99.99
2016-12-05T04:56:11.488Z,99.99
2016-12-05T04:57:11.454Z,99.99
2016-12-05T04:58:11.456Z,99.99
2016-12-05T04:59:11.423Z,99.99
2016-12-05T05:00:11.379Z,99.99
2016-12-05T05:01:11.491Z,99.99
2016-12-05T05:02:11.397Z,99.99
2016-12-05T05:03:11.462Z,99.99
2016-12-05T05:04:11.668Z,99.99
2016-12-05T05:05:11.481Z,99.99
2016-12-05T05:06:11.399Z,99.99
2016-12-05T05:07:11.482Z,99.99
2016-12-05T05:08:11.497Z,99.99
2016-12-05T05:09:11.421Z,99.99
2016-12-05T05:10:11.411Z,99.99
2016-12-05T05:11:11.411Z,99.99
2016-12-05T05:12:11.506Z,99.99
2016-12-05T05:13:11.496Z,99.99
2016-12-05T05:14:11.586Z,99.99
2016-12-05T05:15:11.511Z,99.99
2016-12-05T05:16:11.431Z,99.99
2016-12-05T05:17:11.438Z,99.99
2016-12-05T05:18:11.518Z,99.99
2016-12-05T05:19:11.445Z,99.99
2016-12-05T05:20:11.547Z,99.99
2016-12-05T05:21:11.517Z,99.99
2016-12-05T05:22:11.447Z,99.99
2016-12-05T05:23:11.566Z,99.99
2016-12-05T05:24:11.453Z,99.99
2016-12-05T05:25:11.454Z,99.99
2016-12-05T05:26:11.457Z,99.99
2016-12-05T05:27:11.464Z,99.99
2016-12-05T05:28:11.543Z,99.99
2016-12-05T05:29:11.462Z,99.99
2016-12-05T05:30:11.501Z,99.99
2016-12-05T05:31:11.469Z,99.99
2016-12-05T05:32:11.563Z,99.99
2016-12-05T05:33:11.471Z,99.99
2016-12-05T05:34:11.485Z,99.99
2016-12-05T05:35:11.485Z,99.99
2016-12-05T05:36:11.516Z,99.99
2016-12-05T05:37:11.562Z,99.99
2016-12-05T05:38:11.569Z,99.99
2016-12-05T05:39:11.504Z,99.99
2016-12-05T05:40:11.587Z,99.99
2016-12-05T05:41:11.493Z,99.99
2016-12-05T05:42:11.499Z,99.99
2016-12-05T05:43:11.508Z,99.99
2016-12-05T05:44:11.506Z,99.99
2016-12-05T05:45:11.658Z,99.99
2016-12-05T05:46:11.586Z,99.99
2016-12-05T05:47:11.584Z,99.99
2016-12-05T05:48:11.523Z,99.99
2016-12-05T05:49:11.586Z,99.99
2016-12-05T05:50:11.523Z,99.99
2016-12-05T05:51:11.601Z,99.99
2016-12-05T05:52:11.544Z,99.99
2016-12-05T05:53:11.532Z,99.99
2016-12-05T05:54:11.531Z,99.99
2016-12-05T05:55:11.624Z,99.99
2016-12-05T05:56:11.610Z,99.99
2016-12-05T05:57:11.536Z,99.99
2016-12-05T05:58:11.541Z,99.99
2016-12-05T05:59:11.622Z,99.99
2016-12-05T06:00:11.550Z,99.99
2016-12-05T06:01:11.620Z,99.99
2016-12-05T06:02:11.632Z,99.99
2016-12-05T06:03:11.614Z,99.99
2016-12-05T06:04:11.559Z,99.99
2016-12-05T06:05:11.637Z,99.99
2016-12-05T06:06:11.635Z,99.99
2016-12-05T06:07:11.572Z,99.99
2016-12-05T06:08:11.710Z,99.99
2016-12-05T06:09:11.645Z,99.99
2016-12-05T06:10:11.651Z,99.99
2016-12-05T06:11:11.656Z,99.99
2016-12-05T06:12:11.653Z,99.99
2016-12-05T06:13:11.579Z,99.99
2016-12-05T06:14:11.661Z,99.99
2016-12-05T06:15:11.595Z,99.99
2016-12-05T06:16:11.731Z,99.99
2016-12-05T06:17:11.662Z,99.99
2016-12-05T06:18:11.601Z,99.99
2016-12-05T06:19:11.671Z,99.99
2016-12-05T06:20:11.683Z,99.99
2016-12-05T06:21:11.601Z,99.99
2016-12-05T06:22:11.674Z,99.99
2016-12-05T06:23:11.685Z,99.99
2016-12-05T06:24:11.635Z,99.99
2016-12-05T06:25:11.613Z,99.99
2016-12-05T06:26:11.715Z,99.99
2016-12-05T06:27:11.720Z,99.99
2016-12-05T06:28:11.618Z,99.99
2016-12-05T06:29:11.630Z,99.99
2016-12-05T06:30:11.640Z,99.99
2016-12-05T06:31:11.700Z,99.99
2016-12-05T06:32:11.655Z,99.99
2016-12-05T06:33:11.713Z,99.99
2016-12-05T06:34:11.644Z,99.99
2016-12-05T06:35:11.653Z,99.99
2016-12-05T06:36:11.652Z,99.99
2016-12-05T06:37:11.724Z,99.99
2016-12-05T06:38:11.730Z,99.99
2016-12-05T06:39:11.653Z,99.99
2016-12-05T06:40:11.693Z,99.99
2016-12-05T06:41:11.732Z,99.99
2016-12-05T06:42:11.667Z,99.99
2016-12-05T06:43:11.741Z,99.99
2016-12-05T06:44:11.738Z,99.99
2016-12-05T06:45:11.762Z,99.99
2016-12-05T06:46:11.670Z,99.99
2016-12-05T06:47:11.689Z,99.99
2016-12-05T06:48:11.686Z,99.99
2016-12-05T06:49:11.693Z,99.99
2016-12-05T06:50:11.763Z,99.99
2016-12-05T06:51:11.685Z,99.99
2016-12-05T06:52:11.768Z,99.99
2016-12-05T06:53:11.704Z,99.99
2016-12-05T06:54:11.767Z,99.99
2016-12-05T06:55:11.769Z,99.99
2016-12-05T06:56:11.799Z,99.99
2016-12-05T06:57:11.795Z,99.99
2016-12-05T06:58:11.775Z,99.99
2016-12-05T06:59:11.708Z,99.99
2016-12-05T07:00:11.802Z,99.99
2016-12-05T07:01:11.791Z,99.99
2016-12-05T07:02:11.830Z,99.99
2016-12-05T07:03:11.787Z,99.99
2016-12-05T07:04:11.798Z,99.99
2016-12-05T07:05:11.737Z,99.99
2016-12-05T07:06:11.736Z,99.99
2016-12-05T07:07:12.868Z,99.99
2016-12-05T07:08:16.200Z,99.99
2016-12-05T07:09:11.804Z,99.99
2016-12-05T07:10:11.748Z,99.99
2016-12-05T07:11:11.739Z,99.99
2016-12-05T07:12:11.845Z,99.99
2016-12-05T07:13:11.756Z,99.99
2016-12-05T07:14:11.866Z,99.99
2016-12-05T07:15:11.871Z,99.99
2016-12-05T07:16:11.822Z,99.99
2016-12-05T07:17:11.756Z,99.99
2016-12-05T07:18:11.771Z,99.99
2016-12-05T07:19:11.845Z,99.99
2016-12-05T07:20:11.758Z,99.99
2016-12-05T07:21:11.842Z,99.99
2016-12-05T07:22:11.765Z,99.99
2016-12-05T07:23:11.769Z,99.99
2016-12-05T07:24:11.777Z,99.99
2016-12-05T07:25:11.772Z,99.99
2016-12-05T07:26:11.847Z,99.99
2016-12-05T07:27:11.776Z,99.99
2016-12-05T07:28:12.070Z,99.99
2016-12-05T07:29:11.869Z,99.99
2016-12-05T07:30:11.861Z,99.99
2016-12-05T07:31:11.796Z,99.99
2016-12-05T07:32:11.871Z,99.99
2016-12-05T07:33:11.796Z,99.99
2016-12-05T07:34:11.871Z,99.99
2016-12-05T07:35:11.886Z,99.99
2016-12-05T07:36:11.875Z,99.99
2016-12-05T07:37:11.884Z,99.99
2016-12-05T07:38:11.805Z,99.99
2016-12-05T07:39:11.890Z,99.99
2016-12-05T07:40:11.907Z,99.99
2016-12-05T07:41:11.821Z,99.99
2016-12-05T07:42:11.890Z,99.99
2016-12-05T07:43:11.825Z,99.99
2016-12-05T07:44:11.927Z,99.99
2016-12-05T07:45:11.838Z,99.99
2016-12-05T07:46:11.911Z,99.99
2016-12-05T07:47:11.918Z,99.99
2016-12-05T07:48:11.909Z,99.99
2016-12-05T07:49:11.903Z,99.99
2016-12-05T07:50:11.907Z,99.99
2016-12-05T07:51:11.915Z,99.99
2016-12-05T07:52:11.920Z,99.99
2016-12-05T07:53:11.846Z,99.99
2016-12-05T07:54:11.930Z,99.99
2016-12-05T07:55:12.526Z,99.99
2016-12-05T07:56:11.952Z,99.99
2016-12-05T07:57:11.930Z,99.99
2016-12-05T07:58:12.026Z,99.99
2016-12-05T07:59:11.947Z,99.99
2016-12-05T08:00:11.905Z,99.99
2016-12-05T08:01:11.964Z,99.99
2016-12-05T08:02:11.889Z,99.99
2016-12-05T08:03:11.952Z,99.99
2016-12-05T08:04:11.892Z,99.99
2016-12-05T08:05:11.897Z,99.99
2016-12-05T08:06:11.888Z,99.99
2016-12-05T08:07:11.964Z,99.99
2016-12-05T08:08:11.903Z,99.99
2016-12-05T08:09:11.965Z,99.99
2016-12-05T08:10:11.983Z,99.99
2016-12-05T08:11:11.904Z,99.99
2016-12-05T08:12:11.978Z,99.99
2016-12-05T08:13:11.904Z,99.99
2016-12-05T08:14:11.985Z,99.99
2016-12-05T08:15:11.977Z,99.99
2016-12-05T08:16:12.023Z,99.99
2016-12-05T08:17:12.056Z,99.99
2016-12-05T08:18:12.073Z,99.99
2016-12-05T08:19:11.929Z,99.99
2016-12-05T08:20:11.923Z,99.99
2016-12-05T08:21:11.999Z,99.99
2016-12-05T08:22:11.931Z,99.99
2016-12-05T08:23:11.965Z,99.99
2016-12-05T08:24:11.931Z,99.99
2016-12-05T08:25:12.013Z,99.99
2016-12-05T08:26:12.012Z,99.99
2016-12-05T08:27:12.085Z,99.99
2016-12-05T08:28:12.020Z,99.99
2016-12-05T08:29:12.019Z,99.99
2016-12-05T08:30:12.036Z,99.99
2016-12-05T08:31:11.983Z,99.99
2016-12-05T08:32:11.971Z,99.99
2016-12-05T08:33:11.952Z,99.99
2016-12-05T08:34:11.960Z,99.99
2016-12-05T08:35:11.966Z,99.99
2016-12-05T08:36:12.040Z,99.99
2016-12-05T08:37:11.972Z,99.99
2016-12-05T08:38:12.042Z,99.99
2016-12-05T08:39:11.968Z,99.99
2016-12-05T08:40:12.052Z,99.99
2016-12-05T08:41:12.063Z,99.99
2016-12-05T08:42:11.976Z,99.99
2016-12-05T08:43:11.987Z,99.99
2016-12-05T08:44:11.980Z,99.99
2016-12-05T08:45:12.055Z,99.99
2016-12-05T08:46:11.993Z,99.99
2016-12-05T08:47:12.067Z,99.99
2016-12-05T08:48:12.112Z,99.99
2016-12-05T08:49:12.075Z,99.99
2016-12-05T08:50:12.005Z,99.99
2016-12-05T08:51:12.012Z,99.99
2016-12-05T08:52:12.085Z,99.99
2016-12-05T08:53:12.105Z,99.99
2016-12-05T08:54:12.114Z,99.99
2016-12-05T08:55:12.107Z,99.99
2016-12-05T08:56:12.023Z,99.99
2016-12-05T08:57:12.099Z,99.99
2016-12-05T08:58:12.113Z,99.99
2016-12-05T08:59:12.115Z,99.99
2016-12-05T09:00:12.129Z,99.99
2016-12-05T09:01:12.108Z,99.99
2016-12-05T09:02:12.039Z,99.99
2016-12-05T09:03:12.081Z,99.99
2016-12-05T09:04:12.326Z,99.99
2016-12-05T09:05:12.064Z,99.99
2016-12-05T09:06:12.127Z,99.99
2016-12-05T09:07:12.084Z,99.99
2016-12-05T09:08:12.419Z,99.99
2016-12-05T09:09:14.060Z,99.99
2016-12-05T09:10:12.151Z,99.99
2016-12-05T09:11:12.153Z,99.99
2016-12-05T09:12:12.141Z,99.99
2016-12-05T09:13:12.165Z,99.99
2016-12-05T09:14:12.146Z,99.99
2016-12-05T09:15:12.146Z,99.99
2016-12-05T09:16:12.172Z,99.99
2016-12-05T09:17:12.159Z,99.99
2016-12-05T09:18:12.164Z,99.99
2016-12-05T09:19:12.166Z,99.99
2016-12-05T09:20:12.094Z,99.99
2016-12-05T09:21:12.199Z,99.99
2016-12-05T09:22:12.114Z,99.99
2016-12-05T09:23:12.177Z,99.99
2016-12-05T09:24:12.173Z,99.99
2016-12-05T09:25:12.130Z,99.99
2016-12-05T09:26:12.199Z,99.99
2016-12-05T09:27:12.182Z,99.99
2016-12-05T09:28:12.127Z,99.99
2016-12-05T09:29:12.113Z,99.99
2016-12-05T09:30:12.198Z,99.99
2016-12-05T09:31:12.302Z,99.99
2016-12-05T09:32:12.120Z,99.99
2016-12-05T09:33:12.115Z,99.99
2016-12-05T09:34:12.247Z,99.99
2016-12-05T09:35:12.249Z,99.99
2016-12-05T09:36:12.139Z,99.99
2016-12-05T09:37:12.134Z,99.99
2016-12-05T09:38:12.173Z,99.99
2016-12-05T09:39:12.146Z,99.99
2016-12-05T09:40:12.217Z,99.99
2016-12-05T09:41:12.158Z,99.99
2016-12-05T09:42:12.154Z,99.99
2016-12-05T09:43:12.240Z,99.99
2016-12-05T09:44:12.222Z,99.99
2016-12-05T09:45:12.229Z,99.99
2016-12-05T09:46:12.161Z,99.99
2016-12-05T09:47:12.283Z,99.99
2016-12-05T09:48:12.160Z,99.99
2016-12-05T09:49:12.353Z,99.99
2016-12-05T09:50:12.238Z,99.99
2016-12-05T09:51:12.194Z,99.99
2016-12-05T09:52:12.173Z,99.99
2016-12-05T09:53:12.255Z,99.99
2016-12-05T09:54:12.186Z,99.99
2016-12-05T09:55:12.228Z,99.99
2016-12-05T09:56:12.202Z,99.99
2016-12-05T09:57:12.186Z,99.96
2016-12-05T09:58:12.221Z,98.35
2016-12-05T09:59:12.315Z,96.69
2016-12-05T10:00:12.208Z,96.12
2016-12-05T10:01:12.235Z,94.04
2016-12-05T10:02:12.227Z,94.32
2016-12-05T10:03:12.387Z,95.07
2016-12-05T10:04:12.206Z,95.84
2016-12-05T10:05:12.305Z,95.74
2016-12-05T10:06:12.232Z,95.17
2016-12-05T10:07:12.279Z,93.08
2016-12-05T10:08:12.209Z,91.71
2016-12-05T10:09:12.223Z,90.76
2016-12-05T10:10:12.229Z,90.48
2016-12-05T10:11:12.225Z,90.57
2016-12-05T10:12:12.224Z,90.1
2016-12-05T10:13:12.261Z,90.29
2016-12-05T10:14:12.231Z,90.43
2016-12-05T10:15:12.320Z,90.91
2016-12-05T10:16:12.339Z,91.19
2016-12-05T10:17:12.231Z,91.19
2016-12-05T10:18:12.263Z,90.91
2016-12-05T10:19:12.456Z,90.95
2016-12-05T10:20:12.320Z,90
2016-12-05T10:21:12.261Z,89.15
2016-12-05T10:22:12.332Z,86.91
2016-12-05T10:23:12.348Z,86.25
2016-12-05T10:24:12.280Z,85.97
2016-12-05T10:25:12.258Z,85.4
2016-12-05T10:26:12.342Z,84.92
2016-12-05T10:27:12.356Z,84.92
2016-12-05T10:28:12.389Z,85.4
2016-12-05T10:29:12.349Z,85.68
2016-12-05T10:30:12.294Z,85.16
2016-12-05T10:31:12.350Z,83.39
2016-12-05T10:32:12.370Z,81.87
2016-12-05T10:33:12.379Z,81.84
2016-12-05T10:34:12.368Z,82.97
2016-12-05T10:35:12.402Z,81.4
2016-12-05T10:36:12.366Z,81.02
2016-12-05T10:37:12.382Z,81.3
2016-12-05T10:38:12.366Z,81.87
2016-12-05T10:39:12.389Z,81.21
2016-12-05T10:40:12.308Z,81.4
2016-12-05T10:41:12.428Z,80.83
2016-12-05T10:42:12.384Z,80.26
2016-12-05T10:43:12.310Z,79.25
2016-12-05T10:44:12.370Z,78.3
2016-12-05T10:45:12.463Z,76.97
2016-12-05T10:46:12.796Z,77.17
2016-12-05T10:47:12.387Z,77.55
2016-12-05T10:48:12.361Z,78.3
2016-12-05T10:49:12.381Z,77.73
2016-12-05T10:50:12.333Z,77.36
2016-12-05T10:51:12.412Z,77.36
2016-12-05T10:52:12.353Z,76.97
2016-12-05T10:53:12.507Z,77.26
2016-12-05T10:54:12.344Z,76.21
2016-12-05T10:55:12.351Z,76.03
2016-12-05T10:56:12.436Z,76.69
2016-12-05T10:57:12.351Z,75.02
2016-12-05T10:58:12.348Z,74.6
2016-12-05T10:59:12.467Z,73.74
2016-12-05T11:00:12.417Z,72.89
2016-12-05T11:01:12.364Z,74.79
2016-12-05T11:02:12.386Z,75.84
2016-12-05T11:03:12.441Z,76.03
2016-12-05T11:04:12.441Z,75.93
2016-12-05T11:05:12.392Z,75.36
2016-12-05T11:06:12.424Z,75.36
2016-12-05T11:07:12.378Z,74.69
2016-12-05T11:08:12.393Z,73.84
2016-12-05T11:09:12.385Z,73.65
2016-12-05T11:10:12.461Z,72.6
2016-12-05T11:11:12.393Z,72.89
2016-12-05T11:12:12.503Z,73.93
2016-12-05T11:13:12.460Z,73.74
2016-12-05T11:14:12.497Z,72.89
2016-12-05T11:15:12.436Z,73.42
2016-12-05T11:16:12.490Z,73.38
2016-12-05T11:17:12.564Z,74.05
2016-12-05T11:18:12.480Z,75.05
2016-12-05T11:19:12.485Z,75.43
2016-12-05T11:20:12.563Z,76.1
2016-12-05T11:21:12.443Z,76.67
2016-12-05T11:22:13.189Z,77.96
2016-12-05T11:23:12.512Z,77.52
2016-12-05T11:24:12.534Z,76.14
2016-12-05T11:25:12.427Z,75.7
2016-12-05T11:26:12.440Z,73.27
2016-12-05T11:27:12.457Z,72.22
2016-12-05T11:28:12.458Z,71.31
2016-12-05T11:29:12.444Z,71.75
2016-12-05T11:30:12.512Z,71.94
2016-12-05T11:31:12.653Z,72.7
2016-12-05T11:32:12.574Z,71.66
2016-12-05T11:33:12.523Z,70.89
2016-12-05T11:34:12.448Z,69.98
2016-12-05T11:35:12.530Z,69.56
2016-12-05T11:36:12.559Z,69.66
2016-12-05T11:37:12.565Z,70.13
2016-12-05T11:38:12.955Z,70.51
2016-12-05T11:39:12.532Z,69.66
2016-12-05T11:40:12.544Z,69.75
2016-12-05T11:41:12.567Z,69.46
2016-12-05T11:42:12.552Z,68.8
2016-12-05T11:43:12.609Z,68.61
2016-12-05T11:44:12.492Z,67.88
2016-12-05T11:45:12.614Z,67.88
2016-12-05T11:46:12.495Z,67.85
2016-12-05T11:47:12.512Z,66.94
2016-12-05T11:48:12.579Z,67.03
2016-12-05T11:49:12.581Z,67.03
2016-12-05T11:50:12.753Z,67.88
2016-12-05T11:51:12.523Z,66.59
2016-12-05T11:52:12.612Z,66.2
2016-12-05T11:53:12.653Z,66.27
2016-12-05T11:54:12.573Z,66.94
2016-12-05T11:55:12.591Z,67.13
2016-12-05T11:56:12.516Z,67.13
2016-12-05T11:57:12.521Z,67.03
2016-12-05T11:58:12.570Z,67.13
2016-12-05T11:59:12.640Z,67.13
2016-12-05T12:00:12.602Z,67.13
2016-12-05T12:01:12.562Z,67.13
2016-12-05T12:02:12.629Z,67.13
2016-12-05T12:03:12.557Z,67.6
2016-12-05T12:04:12.549Z,67.88
2016-12-05T12:05:12.843Z,67.5
2016-12-05T12:06:12.637Z,67.98
2016-12-05T12:07:12.626Z,67.79
2016-12-05T12:08:12.595Z,67.6
2016-12-05T12:09:12.651Z,67.79
2016-12-05T12:10:12.657Z,67.98
2016-12-05T12:11:12.637Z,67.41
2016-12-05T12:12:12.628Z,67.07
2016-12-05T12:13:12.597Z,67.69
2016-12-05T12:14:13.038Z,68.46
2016-12-05T12:15:12.654Z,68.36
2016-12-05T12:16:12.685Z,69.18
2016-12-05T12:17:12.588Z,68.93
2016-12-05T12:18:12.656Z,68.93
2016-12-05T12:19:12.662Z,69.79
2016-12-05T12:20:12.664Z,69.15
2016-12-05T12:21:12.828Z,67.82
2016-12-05T12:22:12.721Z,66.97
2016-12-05T12:23:12.608Z,67.73
2016-12-05T12:24:12.595Z,67.82
2016-12-05T12:25:12.624Z,67.73
2016-12-05T12:26:12.620Z,67.07
2016-12-05T12:27:12.680Z,66.97
2016-12-05T12:28:12.847Z,67.92
2016-12-05T12:29:12.682Z,68.11
2016-12-05T12:30:12.683Z,67.38
2016-12-05T12:31:12.700Z,68.01
2016-12-05T12:32:12.723Z,68.96
2016-12-05T12:33:12.740Z,68.4
2016-12-05T12:34:12.806Z,68.43
2016-12-05T12:35:12.644Z,68.24
2016-12-05T12:36:12.707Z,67.67
2016-12-05T12:37:12.642Z,67.35
2016-12-05T12:38:12.653Z,68.68
2016-12-05T12:39:12.808Z,69.79
2016-12-05T12:40:12.759Z,69.82
2016-12-05T12:41:12.726Z,68.77
2016-12-05T12:42:12.718Z,69.44
2016-12-05T12:43:13.869Z,69.54
2016-12-05T12:44:12.677Z,68.77
2016-12-05T12:45:12.667Z,68.74
2016-12-05T12:46:12.939Z,69.79
2016-12-05T12:47:12.677Z,70.61
2016-12-05T12:48:12.844Z,72.6
2016-12-05T12:49:12.837Z,74.08
2016-12-05T12:50:12.701Z,74.08
2016-12-05T12:51:12.695Z,74.08
2016-12-05T12:53:01.481Z,73.76
2016-12-05T12:53:12.717Z,74.52